createdAt,value
2022-11-16T00:00:11.461Z,36.40
2022-11-16T00:03:05.857Z,39.60
2022-11-16T00:05:38.083Z,39.90
2022-11-16T00:08:10.154Z,38.50
2022-11-16T00:10:42.242Z,39.90
2022-11-16T00:13:14.576Z,39.60
2022-11-16T00:15:54.568Z,38.20
2022-11-16T00:18:26.954Z,36.70
2022-11-16T00:20:59.350Z,37.00
2022-11-16T00:23:31.872Z,34.40
2022-11-16T00:26:08.143Z,26.30
2022-11-16T00:28:40.698Z,37.20
2022-11-16T00:31:13.752Z,35.60
2022-11-16T00:33:45.896Z,34.60
2022-11-16T00:36:18.206Z,36.50
2022-11-16T00:38:52.975Z,35.60
2022-11-16T00:41:25.422Z,34.40
2022-11-16T00:46:28.270Z,35.00
2022-11-16T00:49:00.529Z,36.90
2022-11-16T00:51:34.046Z,38.30
2022-11-16T00:54:08.107Z,36.90
2022-11-16T00:56:41.477Z,37.40
2022-11-16T00:59:13.793Z,38.80
2022-11-16T01:01:47.452Z,38.20
2022-11-16T01:04:19.789Z,39.00
2022-11-16T01:06:51.974Z,36.80
2022-11-16T01:09:24.291Z,38.60
2022-11-16T01:12:12.784Z,40.40
2022-11-16T01:14:47.431Z,37.20
2022-11-16T01:17:19.590Z,38.40
2022-11-16T01:19:52.241Z,39.80
2022-11-16T01:22:24.451Z,36.70
2022-11-16T01:24:56.808Z,38.60
2022-11-16T01:27:29.177Z,36.40
2022-11-16T01:30:03.224Z,37.50
2022-11-16T01:32:35.811Z,36.80
2022-11-16T01:37:40.219Z,36.50
2022-11-16T01:40:14.222Z,36.60
2022-11-16T01:42:48.169Z,35.80
2022-11-16T01:45:25.228Z,38.10
2022-11-16T01:48:00.419Z,37.60
2022-11-16T01:50:37.733Z,37.50
2022-11-16T01:53:13.495Z,36.30
2022-11-16T01:55:57.630Z,34.50
2022-11-16T01:58:48.203Z,36.30
2022-11-16T02:01:28.131Z,34.70
2022-11-16T02:04:01.076Z,32.30
2022-11-16T02:06:50.540Z,32.60
2022-11-16T02:09:57.384Z,32.50
2022-11-16T02:12:53.376Z,28.20
2022-11-16T02:15:33.813Z,27.80
2022-11-16T02:18:33.866Z,28.30
2022-11-16T02:21:21.686Z,29.20
2022-11-16T02:24:32.619Z,28.20
2022-11-16T02:27:34.416Z,29.60
2022-11-16T02:30:08.276Z,26.10
2022-11-16T02:32:51.699Z,28.10
2022-11-16T02:35:30.387Z,27.50
2022-11-16T02:38:10.175Z,25.40
2022-11-16T02:40:46.428Z,26.30
2022-11-16T02:43:26.875Z,27.40
2022-11-16T02:46:04.225Z,26.90
2022-11-16T02:48:41.460Z,24.30
2022-11-16T02:51:14.621Z,27.30
2022-11-16T02:54:04.000Z,26.50
2022-11-16T02:56:49.584Z,28.90
2022-11-16T02:59:25.335Z,25.60
2022-11-16T03:02:12.281Z,28.00
2022-11-16T03:04:48.435Z,26.90
2022-11-16T03:07:24.711Z,27.70
2022-11-16T03:09:58.998Z,27.70
2022-11-16T03:12:36.775Z,26.90
2022-11-16T03:15:13.271Z,30.40
2022-11-16T03:17:47.538Z,29.10
2022-11-16T03:20:26.891Z,30.90
2022-11-16T03:23:02.472Z,27.40
2022-11-16T03:25:41.107Z,32.70
2022-11-16T03:28:20.333Z,31.40
2022-11-16T03:30:55.480Z,30.10
2022-11-16T03:33:31.618Z,31.40
2022-11-16T03:36:08.648Z,29.80
2022-11-16T03:38:43.115Z,30.50
2022-11-16T03:41:16.363Z,30.60
2022-11-16T03:46:21.719Z,27.40
2022-11-16T03:48:59.426Z,27.10
2022-11-16T03:51:33.521Z,28.50
2022-11-16T03:54:06.054Z,26.40
2022-11-16T03:56:38.523Z,28.00
2022-11-16T03:59:10.566Z,26.70
2022-11-16T04:01:44.861Z,24.70
2022-11-16T04:04:31.684Z,25.60
2022-11-16T04:07:20.976Z,26.40
2022-11-16T04:10:10.233Z,23.40
2022-11-16T04:13:03.368Z,23.30
2022-11-16T04:16:04.485Z,23.80
2022-11-16T04:18:54.200Z,20.50
2022-11-16T04:21:49.456Z,22.70
2022-11-16T04:24:24.629Z,22.20
2022-11-16T04:27:17.845Z,22.10
2022-11-16T04:32:38.163Z,21.20
2022-11-16T04:35:27.508Z,20.30
2022-11-16T04:38:00.919Z,21.80
2022-11-16T04:40:35.787Z,21.70
2022-11-16T04:43:07.886Z,21.90
2022-11-16T04:46:00.649Z,22.80
2022-11-16T04:48:38.518Z,21.60
2022-11-16T04:51:10.374Z,23.60
2022-11-16T04:53:43.225Z,22.60
2022-11-16T04:56:21.444Z,22.80
2022-11-16T04:58:53.670Z,24.00
2022-11-16T05:01:39.885Z,15.20
2022-11-16T05:04:12.713Z,23.90
2022-11-16T05:06:44.412Z,22.80
2022-11-16T05:09:16.420Z,24.20
2022-11-16T05:11:48.092Z,24.90
2022-11-16T05:14:20.901Z,23.70
2022-11-16T05:16:53.270Z,21.90
2022-11-16T05:19:50.864Z,22.90
2022-11-16T05:22:23.152Z,23.50
2022-11-16T05:24:55.315Z,22.40
2022-11-16T05:27:30.098Z,24.30
2022-11-16T05:30:02.670Z,24.20
2022-11-16T05:32:35.128Z,24.10
2022-11-16T05:35:07.566Z,18.60
2022-11-16T05:37:39.675Z,25.60
2022-11-16T05:40:13.570Z,25.80
2022-11-16T05:42:55.819Z,24.10
2022-11-16T05:47:58.766Z,24.20
2022-11-16T05:50:31.460Z,24.80
2022-11-16T05:53:13.975Z,21.90
2022-11-16T05:55:46.163Z,16.00
2022-11-16T05:58:17.941Z,22.80
2022-11-16T06:00:51.097Z,16.90
2022-11-16T06:03:23.757Z,22.10
2022-11-16T06:05:57.558Z,21.50
2022-11-16T06:08:31.777Z,22.20
2022-11-16T06:11:07.095Z,20.70
2022-11-16T06:13:40.097Z,21.90
2022-11-16T06:16:12.941Z,22.80
2022-11-16T06:18:46.660Z,21.80
2022-11-16T06:21:20.276Z,21.40
2022-11-16T06:23:52.198Z,21.30
2022-11-16T06:26:23.960Z,22.30
2022-11-16T06:28:56.124Z,14.90
2022-11-16T06:31:28.309Z,21.60
2022-11-16T06:34:00.910Z,21.30
2022-11-16T06:36:33.270Z,21.20
2022-11-16T06:39:05.392Z,16.00
2022-11-16T06:41:41.589Z,19.20
2022-11-16T06:44:14.277Z,20.80
2022-11-16T06:46:54.039Z,20.20
2022-11-16T06:49:25.829Z,20.00
2022-11-16T06:51:58.885Z,19.40
2022-11-16T06:54:30.896Z,20.40
2022-11-16T06:57:02.635Z,19.90
2022-11-16T06:59:34.799Z,20.90
2022-11-16T07:02:06.666Z,19.30
2022-11-16T07:04:40.401Z,20.00
2022-11-16T07:07:12.592Z,20.40
2022-11-16T07:12:16.509Z,19.30
2022-11-16T07:14:48.720Z,19.90
2022-11-16T07:17:23.440Z,19.20
2022-11-16T07:19:56.846Z,20.50
2022-11-16T07:22:28.650Z,21.40
2022-11-16T07:25:00.398Z,20.00
2022-11-16T07:27:32.619Z,21.00
2022-11-16T07:30:05.632Z,21.50
2022-11-16T07:32:50.005Z,20.40
2022-11-16T07:35:31.140Z,20.60
2022-11-16T07:38:03.177Z,22.40
2022-11-16T07:40:35.594Z,20.80
2022-11-16T07:43:07.298Z,19.50
2022-11-16T07:46:30.200Z,18.60
2022-11-16T07:48:55.342Z,20.30
2022-11-16T07:51:47.554Z,19.90
2022-11-16T07:54:40.035Z,20.40
2022-11-16T07:57:12.282Z,21.10
2022-11-16T07:59:45.225Z,20.90
2022-11-16T08:02:17.097Z,19.70
2022-11-16T08:04:49.284Z,18.20
2022-11-16T08:07:21.044Z,20.20
2022-11-16T08:09:57.101Z,19.40
2022-11-16T08:12:28.946Z,19.20
2022-11-16T08:15:01.589Z,19.70
2022-11-16T08:17:33.344Z,19.90
2022-11-16T08:20:05.424Z,19.40
2022-11-16T08:22:37.126Z,20.90
2022-11-16T08:25:10.266Z,19.20
2022-11-16T08:27:47.779Z,18.30
2022-11-16T08:30:22.955Z,17.60
2022-11-16T08:32:54.710Z,18.30
2022-11-16T08:35:26.388Z,17.10
2022-11-16T08:37:58.390Z,16.00
2022-11-16T08:40:30.929Z,16.70
2022-11-16T08:43:02.580Z,13.60
2022-11-16T08:45:35.027Z,12.50
2022-11-16T08:48:07.418Z,12.00
2022-11-16T08:51:10.009Z,12.60
2022-11-16T08:53:31.864Z,12.00
2022-11-16T08:56:11.674Z,11.40
2022-11-16T08:58:46.982Z,11.10
2022-11-16T09:01:22.941Z,10.00
2022-11-16T09:03:54.920Z,10.90
2022-11-16T09:06:28.337Z,8.20
2022-11-16T09:09:01.013Z,10.00
2022-11-16T09:11:33.062Z,9.90
2022-11-16T09:14:04.914Z,10.60
2022-11-16T09:16:36.672Z,10.70
2022-11-16T09:19:09.088Z,7.70
2022-11-16T09:21:40.777Z,10.10
2022-11-16T09:24:17.927Z,10.60
2022-11-16T09:26:49.617Z,9.50
2022-11-16T09:29:21.297Z,9.60
2022-11-16T09:31:52.955Z,8.50
2022-11-16T09:34:25.015Z,9.90
2022-11-16T09:36:56.894Z,10.30
2022-11-16T09:39:32.247Z,7.30
2022-11-16T09:42:16.613Z,10.20
2022-11-16T09:45:06.217Z,10.60
2022-11-16T09:47:51.876Z,10.70
2022-11-16T09:50:32.305Z,11.80
2022-11-16T09:53:13.719Z,12.80
2022-11-16T09:55:52.055Z,11.90
2022-11-16T09:58:30.505Z,12.50
2022-11-16T10:01:08.871Z,12.10
2022-11-16T10:03:45.283Z,13.30
2022-11-16T10:06:23.629Z,13.30
2022-11-16T10:08:57.624Z,12.30
2022-11-16T10:11:44.568Z,15.30
2022-11-16T10:14:35.673Z,14.00
2022-11-16T10:17:14.285Z,13.80
2022-11-16T10:19:54.135Z,14.50
2022-11-16T10:22:42.427Z,14.70
2022-11-16T10:25:20.460Z,16.40
2022-11-16T10:28:22.352Z,15.80
2022-11-16T10:31:04.040Z,15.80
2022-11-16T10:33:39.342Z,17.50
2022-11-16T10:36:15.966Z,14.70
2022-11-16T10:38:48.148Z,16.30
2022-11-16T10:41:25.941Z,11.00
2022-11-16T10:44:00.377Z,14.20
2022-11-16T10:46:36.596Z,14.20
2022-11-16T10:49:17.433Z,14.20
2022-11-16T10:51:49.051Z,13.30
2022-11-16T10:54:21.112Z,14.40
2022-11-16T10:57:03.413Z,14.10
2022-11-16T10:59:43.649Z,12.30
2022-11-16T11:02:34.697Z,12.10
2022-11-16T11:05:20.264Z,11.50
2022-11-16T11:08:01.705Z,11.40
2022-11-16T11:10:35.863Z,11.00
2022-11-16T11:13:23.883Z,10.60
2022-11-16T11:16:16.746Z,10.80
2022-11-16T11:18:48.466Z,9.80
2022-11-16T11:21:25.607Z,10.20
2022-11-16T11:24:16.129Z,10.60
2022-11-16T11:26:55.625Z,10.10
2022-11-16T11:29:31.194Z,9.90
2022-11-16T11:32:07.727Z,9.70
2022-11-16T11:34:45.326Z,9.70
2022-11-16T11:37:20.273Z,9.80
2022-11-16T11:40:08.336Z,10.00
2022-11-16T11:42:44.102Z,9.10
2022-11-16T11:45:18.802Z,8.50
2022-11-16T11:47:59.421Z,8.00
2022-11-16T11:50:42.331Z,7.80
2022-11-16T11:53:31.460Z,8.50
2022-11-16T11:56:03.494Z,7.40
2022-11-16T11:58:40.148Z,5.60
2022-11-16T12:01:55.101Z,7.00
2022-11-16T12:05:09.067Z,7.20
2022-11-16T12:07:56.891Z,7.00
2022-11-16T12:10:39.168Z,6.90
2022-11-16T12:13:32.457Z,8.10
2022-11-16T12:16:15.143Z,6.90
2022-11-16T12:19:01.726Z,6.80
2022-11-16T12:21:45.715Z,6.60
2022-11-16T12:24:36.467Z,7.20
2022-11-16T12:27:17.816Z,6.60
2022-11-16T12:30:01.052Z,7.60
2022-11-16T12:32:53.007Z,6.80
2022-11-16T12:35:40.089Z,6.50
2022-11-16T12:38:35.036Z,8.10
2022-11-16T12:41:26.629Z,7.70
2022-11-16T12:44:00.894Z,6.10
2022-11-16T12:46:44.660Z,7.10
2022-11-16T12:49:49.946Z,6.50
2022-11-16T12:52:42.025Z,6.30
2022-11-16T12:55:32.289Z,6.40
2022-11-16T12:58:20.388Z,5.20
2022-11-16T13:01:04.558Z,5.70
2022-11-16T13:03:45.260Z,5.60
2022-11-16T13:06:20.986Z,6.60
2022-11-16T13:09:04.287Z,6.50
2022-11-16T13:11:39.682Z,6.00
2022-11-16T13:14:18.340Z,6.00
2022-11-16T13:16:51.354Z,5.70
2022-11-16T13:19:23.620Z,6.10
2022-11-16T13:22:03.179Z,5.80
2022-11-16T13:24:49.372Z,6.10
2022-11-16T13:27:37.234Z,6.40
2022-11-16T13:30:19.211Z,7.10
2022-11-16T13:33:08.504Z,7.30
2022-11-16T13:35:40.841Z,7.80
2022-11-16T13:38:14.306Z,6.80
2022-11-16T13:40:46.157Z,7.60
2022-11-16T13:43:22.592Z,4.90
2022-11-16T13:45:58.270Z,6.80
2022-11-16T13:48:34.622Z,6.80
2022-11-16T13:51:10.380Z,7.50
2022-11-16T13:54:43.491Z,7.20
2022-11-16T13:56:52.502Z,7.80
2022-11-16T13:59:30.568Z,6.80
2022-11-16T14:02:05.186Z,7.50
2022-11-16T14:04:55.101Z,7.20
2022-11-16T14:07:43.234Z,8.00
2022-11-16T14:11:06.853Z,9.10
2022-11-16T14:13:45.611Z,8.20
2022-11-16T14:16:48.306Z,8.00
2022-11-16T14:19:55.554Z,8.10
2022-11-16T14:22:59.252Z,7.50
2022-11-16T14:25:41.220Z,6.40
2022-11-16T14:28:24.260Z,6.30
2022-11-16T14:33:37.223Z,6.10
2022-11-16T14:36:11.464Z,5.90
2022-11-16T14:38:44.772Z,6.90
2022-11-16T14:41:24.137Z,6.30
2022-11-16T14:43:58.568Z,6.90
2022-11-16T14:46:34.956Z,7.20
2022-11-16T14:49:13.533Z,7.70
2022-11-16T14:51:48.594Z,7.70
2022-11-16T14:54:29.647Z,7.80
2022-11-16T14:57:04.124Z,8.40
2022-11-16T14:59:36.156Z,10.00
2022-11-16T15:02:26.709Z,7.90
2022-11-16T15:04:59.617Z,8.40
2022-11-16T15:07:32.584Z,7.60
2022-11-16T15:10:04.537Z,8.80
2022-11-16T15:12:42.969Z,8.80
2022-11-16T15:15:19.229Z,9.30
2022-11-16T15:18:09.021Z,9.60
2022-11-16T15:20:51.203Z,8.30
2022-11-16T15:23:27.656Z,5.70
2022-11-16T15:26:03.715Z,8.40
2022-11-16T15:28:35.806Z,8.50
2022-11-16T15:31:09.518Z,6.00
2022-11-16T15:33:45.068Z,7.90
2022-11-16T15:36:32.367Z,8.00
2022-11-16T15:39:06.751Z,8.40
2022-11-16T15:41:40.629Z,8.80
2022-11-16T15:44:16.605Z,8.30
2022-11-16T15:46:52.758Z,8.60
2022-11-16T15:49:31.399Z,10.20
2022-11-16T15:52:03.809Z,9.60
2022-11-16T15:55:01.174Z,7.90
2022-11-16T15:57:33.053Z,8.30
2022-11-16T16:00:05.610Z,7.20
2022-11-16T16:02:37.415Z,7.80
2022-11-16T16:05:23.784Z,7.40
2022-11-16T16:07:59.541Z,7.70
2022-11-16T16:10:31.323Z,7.10
2022-11-16T16:13:04.372Z,7.60
2022-11-16T16:15:37.878Z,8.90
2022-11-16T16:18:40.129Z,8.60
2022-11-16T16:21:15.223Z,7.30
2022-11-16T16:23:53.590Z,8.30
2022-11-16T16:26:25.697Z,7.40
2022-11-16T16:28:58.605Z,7.70
2022-11-16T16:31:30.555Z,8.20
2022-11-16T16:34:12.933Z,6.20
2022-11-16T16:36:44.615Z,8.20
2022-11-16T16:39:16.326Z,7.60
2022-11-16T16:41:48.395Z,9.30
2022-11-16T16:44:20.435Z,9.80
2022-11-16T16:46:53.302Z,9.10
2022-11-16T16:49:25.046Z,9.20
2022-11-16T16:51:56.774Z,6.50
2022-11-16T16:54:29.430Z,9.50
2022-11-16T16:59:33.183Z,9.20
2022-11-16T17:02:06.540Z,10.10
2022-11-16T17:04:38.330Z,8.70
2022-11-16T17:07:09.973Z,8.90
2022-11-16T17:09:42.177Z,12.40
2022-11-16T17:12:13.859Z,9.90
2022-11-16T17:14:51.302Z,10.00
2022-11-16T17:17:24.315Z,10.30
2022-11-16T17:19:59.525Z,9.40
2022-11-16T17:22:33.969Z,11.50
2022-11-16T17:25:06.188Z,10.40
2022-11-16T17:27:37.983Z,10.80
2022-11-16T17:30:12.514Z,11.70
2022-11-16T17:32:44.521Z,11.10
2022-11-16T17:35:16.940Z,9.90
2022-11-16T17:37:48.588Z,11.40
2022-11-16T17:40:22.222Z,11.20
2022-11-16T17:42:54.313Z,10.10
2022-11-16T17:45:26.064Z,10.40
2022-11-16T17:47:57.747Z,11.60
2022-11-16T17:50:29.709Z,10.50
2022-11-16T17:53:01.769Z,11.80
2022-11-16T17:55:33.769Z,8.40
2022-11-16T17:58:05.483Z,7.30
2022-11-16T18:00:37.571Z,7.20
2022-11-16T18:03:09.424Z,8.80
2022-11-16T18:05:41.274Z,11.70
2022-11-16T18:08:16.754Z,11.70
2022-11-16T18:10:48.764Z,12.10
2022-11-16T18:13:20.465Z,11.30
2022-11-16T18:15:52.459Z,9.10
2022-11-16T18:18:25.602Z,12.80
2022-11-16T18:20:58.372Z,12.70
2022-11-16T18:23:30.872Z,12.70
2022-11-16T18:26:03.556Z,11.80
2022-11-16T18:28:36.396Z,12.00
2022-11-16T18:33:40.416Z,10.90
2022-11-16T18:36:13.814Z,9.70
2022-11-16T18:38:45.691Z,9.60
2022-11-16T18:41:21.008Z,10.30
2022-11-16T18:43:55.045Z,10.00
2022-11-16T18:46:28.010Z,11.00
2022-11-16T18:49:00.369Z,8.80
2022-11-16T18:51:32.145Z,8.50
2022-11-16T18:54:04.041Z,9.90
2022-11-16T18:56:36.273Z,9.10
2022-11-16T18:59:08.876Z,9.00
2022-11-16T19:01:41.378Z,8.90
2022-11-16T19:04:15.576Z,9.50
2022-11-16T19:06:48.421Z,8.80
2022-11-16T19:09:20.951Z,8.90
2022-11-16T19:11:53.049Z,8.80
2022-11-16T19:14:25.150Z,7.80
2022-11-16T19:16:57.481Z,8.60
2022-11-16T19:22:01.722Z,7.40
2022-11-16T19:24:34.017Z,7.40
2022-11-16T19:29:37.774Z,8.00
2022-11-16T19:32:09.777Z,7.60
2022-11-16T19:34:41.504Z,8.30
2022-11-16T19:37:14.026Z,8.80
2022-11-16T19:39:46.336Z,9.10
2022-11-16T19:42:18.506Z,8.70
2022-11-16T19:44:50.741Z,8.30
2022-11-16T19:47:26.351Z,9.10
2022-11-16T19:49:59.386Z,9.30
2022-11-16T19:55:02.265Z,9.50
2022-11-16T19:57:34.431Z,6.90
2022-11-16T20:00:09.261Z,9.20
2022-11-16T20:02:41.313Z,9.00
2022-11-16T20:05:13.287Z,9.70
2022-11-16T20:07:46.942Z,9.40
2022-11-16T20:10:19.363Z,10.30
2022-11-16T20:12:52.025Z,10.00
2022-11-16T20:15:25.382Z,9.60
2022-11-16T20:17:58.919Z,8.90
2022-11-16T20:20:31.614Z,8.90
2022-11-16T20:23:07.870Z,9.90
2022-11-16T20:25:45.348Z,10.60
2022-11-16T20:28:18.269Z,8.90
2022-11-16T20:30:51.371Z,9.40
2022-11-16T20:33:24.655Z,9.00
2022-11-16T20:36:04.220Z,9.40
2022-11-16T20:38:37.557Z,9.70
2022-11-16T20:41:15.098Z,9.60
2022-11-16T20:43:49.363Z,9.20
2022-11-16T20:46:23.162Z,9.30
2022-11-16T20:48:57.240Z,9.30
2022-11-16T20:51:31.412Z,8.00
2022-11-16T20:54:05.544Z,8.50
2022-11-16T20:56:38.803Z,9.00
2022-11-16T20:59:11.107Z,9.20
2022-11-16T21:01:47.780Z,9.20
2022-11-16T21:04:21.691Z,10.90
2022-11-16T21:06:55.689Z,9.60
2022-11-16T21:09:28.181Z,9.30
2022-11-16T21:12:18.449Z,9.00
2022-11-16T21:14:53.231Z,8.70
2022-11-16T21:17:25.766Z,10.20
2022-11-16T21:20:25.355Z,9.60
2022-11-16T21:22:50.825Z,10.00
2022-11-16T21:25:23.273Z,9.50
2022-11-16T21:27:55.392Z,10.50
2022-11-16T21:30:27.406Z,9.40
2022-11-16T21:32:59.121Z,9.30
2022-11-16T21:35:31.266Z,6.10
2022-11-16T21:38:03.795Z,10.10
2022-11-16T21:40:36.227Z,10.80
2022-11-16T21:43:07.869Z,9.90
2022-11-16T21:45:39.956Z,9.40
2022-11-16T21:48:12.213Z,10.30
2022-11-16T21:50:45.278Z,10.20
2022-11-16T21:53:17.104Z,10.70
2022-11-16T21:55:52.532Z,10.90
2022-11-16T21:58:24.311Z,11.30
2022-11-16T22:01:00.378Z,11.70
2022-11-16T22:03:35.834Z,11.10
2022-11-16T22:06:31.251Z,10.40
2022-11-16T22:09:04.788Z,10.50
2022-11-16T22:11:36.891Z,10.00
2022-11-16T22:14:09.463Z,10.70
2022-11-16T22:19:12.861Z,11.20
2022-11-16T22:21:45.823Z,12.20
2022-11-16T22:24:18.370Z,10.00
2022-11-16T22:26:50.749Z,11.20
2022-11-16T22:29:22.725Z,11.30
2022-11-16T22:31:55.123Z,11.10
2022-11-16T22:34:27.595Z,12.50
2022-11-16T22:36:59.491Z,11.80
2022-11-16T22:39:31.874Z,12.20
2022-11-16T22:42:04.681Z,11.20
2022-11-16T22:44:36.791Z,11.30
2022-11-16T22:47:10.139Z,12.40
2022-11-16T22:49:42.111Z,10.90
2022-11-16T22:52:14.729Z,13.00
2022-11-16T22:54:47.101Z,11.90
2022-11-16T22:57:20.004Z,12.40
2022-11-16T22:59:52.134Z,12.00
2022-11-16T23:02:25.008Z,12.90
2022-11-16T23:04:58.286Z,13.70
2022-11-16T23:07:30.581Z,12.20
2022-11-16T23:10:03.631Z,11.30
2022-11-16T23:12:52.938Z,11.90
2022-11-16T23:15:48.521Z,11.00
2022-11-16T23:18:21.107Z,11.50
2022-11-16T23:23:58.517Z,11.20
2022-11-16T23:27:03.122Z,12.30
2022-11-16T23:29:34.988Z,12.20
2022-11-16T23:32:08.206Z,10.90
2022-11-16T23:34:40.794Z,11.70
2022-11-16T23:37:13.406Z,10.90
2022-11-16T23:39:46.503Z,10.60
2022-11-16T23:42:32.572Z,10.60
2022-11-16T23:45:04.780Z,10.90
2022-11-16T23:47:37.663Z,10.60
2022-11-16T23:50:10.357Z,11.20
2022-11-16T23:55:12.906Z,11.20
2022-11-16T23:57:44.625Z,11.90
